createdAt,value
2022-10-18T00:03:34.421Z,18.86
2022-10-18T00:08:38.589Z,20.12
2022-10-18T00:13:41.627Z,20.50
2022-10-18T00:18:45.356Z,19.27
2022-10-18T00:23:49.890Z,19.40
2022-10-18T00:28:58.465Z,20.24
2022-10-18T00:34:10.444Z,20.55
2022-10-18T00:39:19.391Z,19.96
2022-10-18T00:44:25.058Z,18.31
2022-10-18T00:49:32.994Z,19.14
2022-10-18T00:54:39.170Z,19.86
2022-10-18T00:59:43.192Z,20.00
2022-10-18T01:04:47.563Z,20.11
2022-10-18T01:10:02.416Z,20.20
2022-10-18T01:15:15.466Z,20.24
2022-10-18T01:20:43.149Z,20.20
2022-10-18T01:26:01.000Z,20.19
2022-10-18T01:31:33.027Z,20.24
2022-10-18T01:36:43.889Z,19.20
2022-10-18T01:41:49.357Z,18.22
2022-10-18T01:46:54.439Z,19.17
2022-10-18T01:51:57.266Z,19.60
2022-10-18T01:57:17.001Z,19.83
2022-10-18T02:02:42.670Z,19.89
2022-10-18T02:08:12.409Z,19.96
2022-10-18T02:13:29.506Z,19.86
2022-10-18T02:18:39.171Z,19.94
2022-10-18T02:23:45.144Z,20.01
2022-10-18T02:28:48.358Z,19.99
2022-10-18T02:33:56.893Z,19.86
2022-10-18T02:39:04.782Z,19.83
2022-10-18T02:44:07.618Z,19.77
2022-10-18T02:49:10.545Z,19.72
2022-10-18T02:54:13.323Z,19.85
2022-10-18T02:59:16.642Z,19.89
2022-10-18T03:04:19.598Z,19.82
2022-10-18T03:09:22.649Z,19.76
2022-10-18T03:14:25.453Z,19.74
2022-10-18T03:19:28.260Z,19.69
2022-10-18T03:24:31.263Z,19.67
2022-10-18T03:29:34.291Z,19.66
2022-10-18T03:34:37.170Z,19.66
2022-10-18T03:39:40.322Z,19.73
2022-10-18T03:44:43.286Z,19.82
2022-10-18T03:49:46.090Z,19.86
2022-10-18T03:54:48.891Z,19.88
2022-10-18T03:59:51.691Z,19.90
2022-10-18T04:04:54.496Z,19.91
2022-10-18T04:09:57.632Z,20.00
2022-10-18T04:15:00.411Z,20.05
2022-10-18T04:20:03.717Z,20.14
2022-10-18T04:25:07.135Z,20.18
2022-10-18T04:30:10.745Z,20.21
2022-10-18T04:35:14.174Z,20.22
2022-10-18T04:40:17.487Z,20.21
2022-10-18T04:45:20.292Z,20.25
2022-10-18T04:50:23.093Z,20.38
2022-10-18T04:55:25.997Z,20.29
2022-10-18T05:00:28.797Z,20.23
2022-10-18T05:05:49.661Z,20.42
2022-10-18T05:10:54.670Z,20.64
2022-10-18T05:15:59.736Z,20.76
2022-10-18T05:21:02.735Z,19.92
2022-10-18T05:26:07.384Z,18.17
2022-10-18T05:31:11.933Z,18.89
2022-10-18T05:36:15.061Z,19.84
2022-10-18T05:41:18.452Z,20.09
2022-10-18T05:46:21.253Z,20.19
2022-10-18T05:51:24.155Z,20.25
2022-10-18T05:56:27.008Z,20.29
2022-10-18T06:01:29.867Z,20.25
2022-10-18T06:06:33.513Z,20.46
2022-10-18T06:11:37.161Z,20.67
2022-10-18T06:16:40.119Z,20.65
2022-10-18T06:21:44.551Z,20.65
2022-10-18T06:26:47.865Z,20.80
2022-10-18T06:31:50.770Z,20.92
2022-10-18T06:36:56.386Z,20.93
2022-10-18T06:42:00.981Z,20.99
2022-10-18T06:47:04.499Z,21.02
2022-10-18T06:52:07.576Z,21.14
2022-10-18T06:57:10.413Z,21.14
2022-10-18T07:02:19.768Z,21.18
2022-10-18T07:07:22.466Z,21.55
2022-10-18T07:12:25.887Z,21.67
2022-10-18T07:17:28.861Z,20.41
2022-10-18T07:22:31.792Z,19.86
2022-10-18T07:27:39.610Z,21.18
2022-10-18T07:32:42.619Z,21.65
2022-10-18T07:37:45.422Z,21.73
2022-10-18T07:42:48.221Z,21.75
2022-10-18T07:47:56.294Z,21.31
2022-10-18T07:52:59.354Z,19.78
2022-10-18T07:58:02.158Z,20.53
2022-10-18T08:03:05.266Z,21.29
2022-10-18T08:08:08.301Z,21.70
2022-10-18T08:13:11.295Z,22.02
2022-10-18T08:18:14.492Z,21.96
2022-10-18T08:23:17.292Z,20.47
2022-10-18T08:28:20.914Z,20.98
2022-10-18T08:33:23.723Z,21.66
2022-10-18T08:38:31.546Z,22.08
2022-10-18T08:43:47.546Z,22.30
2022-10-18T08:48:54.244Z,20.90
2022-10-18T08:54:04.629Z,20.68
2022-10-18T08:59:12.750Z,21.44
2022-10-18T09:04:34.389Z,21.66
2022-10-18T09:10:02.200Z,21.64
2022-10-18T09:15:14.186Z,21.42
2022-10-18T09:20:31.445Z,21.58
2022-10-18T09:25:49.906Z,21.84
2022-10-18T09:31:05.513Z,21.88
2022-10-18T09:36:11.176Z,22.12
2022-10-18T09:41:19.996Z,21.70
2022-10-18T09:46:27.882Z,20.28
2022-10-18T09:51:40.986Z,20.94
2022-10-18T09:57:09.386Z,21.57
2022-10-18T10:02:19.843Z,21.97
2022-10-18T10:07:35.449Z,21.90
2022-10-18T10:12:40.218Z,22.15
2022-10-18T10:17:43.666Z,22.22
2022-10-18T10:22:48.046Z,20.89
2022-10-18T10:27:51.082Z,20.39
2022-10-18T10:32:55.828Z,21.64
2022-10-18T10:37:59.043Z,22.45
2022-10-18T10:43:18.187Z,22.90
2022-10-18T10:48:41.200Z,23.03
2022-10-18T10:53:50.976Z,21.91
2022-10-18T10:58:58.505Z,22.62
2022-10-18T11:04:23.106Z,23.03
2022-10-18T11:09:38.574Z,21.36
2022-10-18T11:14:46.003Z,21.81
2022-10-18T11:20:07.234Z,22.33
2022-10-18T11:25:15.565Z,22.35
2022-10-18T11:30:37.926Z,22.17
2022-10-18T11:36:03.550Z,22.46
2022-10-18T11:41:17.122Z,21.57
2022-10-18T11:46:32.721Z,20.58
2022-10-18T11:51:56.330Z,21.41
2022-10-18T11:57:16.438Z,21.60
2022-10-18T12:02:47.638Z,21.59
2022-10-18T12:07:58.989Z,21.56
2022-10-18T12:13:06.908Z,21.67
2022-10-18T12:18:23.537Z,21.91
2022-10-18T12:23:29.307Z,22.13
2022-10-18T12:28:51.734Z,22.21
2022-10-18T12:34:00.613Z,22.06
2022-10-18T12:39:11.201Z,20.69
2022-10-18T12:44:24.546Z,19.85
2022-10-18T12:49:40.179Z,21.00
2022-10-18T12:55:03.941Z,21.31
2022-10-18T13:00:27.533Z,21.26
2022-10-18T13:05:55.048Z,21.43
2022-10-18T13:11:01.806Z,21.83
2022-10-18T13:16:12.087Z,21.84
2022-10-18T13:21:42.129Z,21.73
2022-10-18T13:27:24.352Z,21.85
2022-10-18T13:33:09.770Z,21.78
2022-10-18T13:38:34.779Z,21.58
2022-10-18T13:43:53.313Z,21.54
2022-10-18T13:49:17.758Z,21.43
2022-10-18T13:54:42.575Z,21.41
2022-10-18T14:00:04.021Z,21.18
2022-10-18T14:05:25.643Z,21.13
2022-10-18T14:10:57.438Z,21.03
2022-10-18T14:16:25.126Z,21.12
2022-10-18T14:21:37.482Z,21.12
2022-10-18T14:26:40.375Z,21.06
2022-10-18T14:31:50.630Z,20.97
2022-10-18T14:36:53.543Z,20.98
2022-10-18T14:41:58.594Z,20.97
2022-10-18T14:47:13.478Z,21.03
2022-10-18T14:52:24.046Z,20.95
2022-10-18T14:57:33.977Z,20.90
2022-10-18T15:02:38.984Z,20.83
2022-10-18T15:07:42.044Z,20.78
2022-10-18T15:13:08.196Z,20.57
2022-10-18T15:18:19.525Z,20.32
2022-10-18T15:23:28.387Z,19.94
2022-10-18T15:28:49.947Z,19.88
2022-10-18T15:33:55.497Z,19.86
2022-10-18T15:39:15.091Z,19.95
2022-10-18T15:44:20.759Z,19.98
2022-10-18T15:49:45.486Z,19.98
2022-10-18T16:00:08.360Z,20.15
2022-10-18T16:05:17.089Z,20.11
2022-10-18T16:10:20.337Z,20.15
2022-10-18T16:15:23.446Z,20.23
2022-10-18T16:20:27.372Z,20.24
2022-10-18T16:25:30.275Z,20.19
2022-10-18T16:30:35.432Z,20.18
2022-10-18T16:35:38.438Z,20.10
2022-10-18T16:40:41.572Z,20.00
2022-10-18T16:45:44.892Z,19.83
2022-10-18T16:50:48.772Z,19.68
2022-10-18T16:55:59.998Z,19.75
2022-10-18T17:01:05.417Z,19.68
2022-10-18T17:06:32.729Z,19.63
2022-10-18T17:11:35.539Z,19.53
2022-10-18T17:16:39.231Z,19.47
2022-10-18T17:21:42.165Z,19.47
2022-10-18T17:26:44.963Z,19.51
2022-10-18T17:31:47.763Z,19.58
2022-10-18T17:36:50.564Z,19.48
2022-10-18T17:41:56.141Z,19.36
2022-10-18T17:46:58.931Z,19.24
2022-10-18T17:52:06.085Z,19.26
2022-10-18T17:57:10.066Z,19.22
2022-10-18T18:02:12.867Z,19.03
2022-10-18T18:07:16.080Z,19.06
2022-10-18T18:12:19.322Z,19.10
2022-10-18T18:17:28.772Z,19.15
2022-10-18T18:22:40.497Z,19.11
2022-10-18T18:27:45.411Z,18.89
2022-10-18T18:32:48.213Z,18.90
2022-10-18T18:37:51.163Z,18.89
2022-10-18T18:43:07.006Z,18.91
2022-10-18T18:48:19.096Z,18.74
2022-10-18T18:53:27.121Z,18.65
2022-10-18T18:58:32.718Z,18.47
2022-10-18T19:03:37.062Z,18.33
2022-10-18T19:08:40.911Z,18.22
2022-10-18T19:13:44.752Z,17.98
2022-10-18T19:18:59.923Z,18.06
2022-10-18T19:24:04.647Z,17.94
2022-10-18T19:29:21.704Z,18.01
2022-10-18T19:34:26.145Z,18.13
2022-10-18T19:39:34.578Z,18.13
2022-10-18T19:44:37.721Z,17.83
2022-10-18T19:49:42.986Z,17.73
2022-10-18T19:54:45.850Z,17.59
2022-10-18T19:59:48.659Z,17.62
2022-10-18T20:04:51.453Z,17.53
2022-10-18T20:09:54.257Z,17.45
2022-10-18T20:14:57.570Z,17.23
2022-10-18T20:20:00.372Z,16.98
2022-10-18T20:25:03.377Z,16.95
2022-10-18T20:30:10.436Z,16.96
2022-10-18T20:35:14.511Z,16.83
2022-10-18T20:40:17.414Z,16.80
2022-10-18T20:45:20.216Z,16.66
2022-10-18T20:50:23.126Z,16.48
2022-10-18T20:55:25.929Z,16.47
2022-10-18T21:00:29.032Z,16.50
2022-10-18T21:05:32.999Z,16.46
2022-10-18T21:10:35.866Z,16.43
2022-10-18T21:15:39.076Z,16.36
2022-10-18T21:20:41.878Z,16.26
2022-10-18T21:25:50.724Z,16.30
2022-10-18T21:30:53.524Z,16.25
2022-10-18T21:35:56.323Z,16.18
2022-10-18T21:40:59.130Z,16.24
2022-10-18T21:46:02.034Z,16.31
2022-10-18T21:51:07.307Z,16.26
2022-10-18T21:56:15.928Z,16.32
2022-10-18T22:01:39.527Z,16.34
2022-10-18T22:06:42.838Z,16.32
2022-10-18T22:11:49.341Z,16.31
2022-10-18T22:16:52.335Z,16.22
2022-10-18T22:21:55.128Z,16.34
2022-10-18T22:26:58.138Z,16.45
2022-10-18T22:32:01.962Z,16.44
2022-10-18T22:37:04.765Z,16.46
2022-10-18T22:42:07.771Z,16.57
2022-10-18T22:47:10.574Z,16.49
2022-10-18T22:52:13.384Z,16.47
2022-10-18T22:57:16.175Z,16.31
2022-10-18T23:02:18.980Z,16.21
2022-10-18T23:07:21.884Z,16.12
2022-10-18T23:12:24.686Z,16.18
2022-10-18T23:17:27.487Z,16.18
2022-10-18T23:22:30.597Z,16.13
2022-10-18T23:27:33.771Z,16.20
2022-10-18T23:32:38.621Z,16.00
2022-10-18T23:37:41.456Z,15.77
2022-10-18T23:42:44.257Z,15.82
2022-10-18T23:47:47.065Z,15.74
2022-10-18T23:52:49.863Z,15.76
2022-10-18T23:57:52.870Z,15.76
